This is the latest recevied weather packets stored in our database for station/object MKSRDG. If no packets are shown the sender has not sent any weather packets the latest 10 day(s).
| Time | Temp. | Humidity | Pressure | Rain* | Wind** | Luminosity | Snow |
|---|---|---|---|---|---|---|---|
| 1777852491 | 25° C | 51% | 1007 hPa | 0 mm | - | 251 W/m² | - |
| 1777851591 | 25° C | 51% | 1007 hPa | 0 mm | - | 244 W/m² | - |
| 1777850691 | 25° C | 51% | 1007.3 hPa | 0 mm | - | 251 W/m² | - |
| 1777849791 | 25.56° C | 50% | 1007.4 hPa | 0 mm | - | 374 W/m² | - |
| 1777848891 | 26.67° C | 53% | 1007.7 hPa | 0 mm | - | 812 W/m² | - |
| 1777847991 | 26.67° C | 50% | 1007.9 hPa | 0 mm | - | 875 W/m² | - |
| 1777847091 | 26.11° C | 54% | 1008 hPa | 0 mm | - | 844 W/m² | - |
| 1777846191 | 26.11° C | 56% | 1008.3 hPa | 0 mm | - | 856 W/m² | - |
| 1777845291 | 25.56° C | 54% | 1008.4 hPa | 0 mm | - | 874 W/m² | - |
| 1777844391 | 25° C | 60% | 1008.7 hPa | 0 mm | - | 891 W/m² | - |
| 1777843491 | 25.56° C | 60% | 1008.8 hPa | 0 mm | - | 905 W/m² | - |
| 1777842591 | 24.44° C | 59% | 1009 hPa | 0 mm | - | 919 W/m² | - |
| 1777841691 | 24.44° C | 61% | 1009.1 hPa | 0 mm | - | 930 W/m² | - |
| 1777840791 | 24.44° C | 65% | 1009.3 hPa | 0 mm | - | 937 W/m² | - |
| 1777839891 | 23.89° C | 65% | 1009.4 hPa | 0 mm | - | 939 W/m² | - |
| 1777838991 | 23.89° C | 64% | 1009.6 hPa | 0 mm | - | 940 W/m² | - |
| 1777838091 | 23.33° C | 63% | 1009.7 hPa | 0 mm | - | 937 W/m² | - |
| 1777837191 | 23.33° C | 60% | 1009.9 hPa | 0 mm | - | 930 W/m² | - |
| 1777836291 | 22.78° C | 65% | 1010.1 hPa | 0 mm | - | 918 W/m² | - |
| 1777835392 | 22.22° C | 62% | 1010.3 hPa | 0 mm | - | 904 W/m² | - |
| 1777834492 | 21.67° C | 68% | 1010.3 hPa | 0 mm | - | 884 W/m² | - |
| 1777833591 | 20.56° C | 65% | 1010.5 hPa | 0 mm | - | 863 W/m² | - |
| 1777832692 | 20° C | 65% | 1010.8 hPa | 0 mm | - | 838 W/m² | - |
| 1777831792 | 20° C | 68% | 1010.9 hPa | 0 mm | - | 809 W/m² | - |
| 1777830891 | 20° C | 69% | 1010.9 hPa | 0 mm | - | 779 W/m² | - |
* Rain latest hour (hover to see other rain measurements)
** Current wind speed in m/s (hover to see current wind gust speed)